Time;durP1;ratioP1;P1;durP2;ratioP2;P2;SDS_P1;SDS_P2;PMS_P1;PMS_P2;Temp;Humidity;BMP_temperature;BMP_pressure;BME280_temperature;BME280_humidity;BME280_pressure;Samples;Min_cycle;Max_cycle;Signal;HPM_P1;HPM_P2
2023/02/19 00:01:37;;;;;;;1.95;1.40;;;;;;;7.71;100.00;98530.38;4189400;28;20127;-78
2023/02/19 00:03:38;;;;;;;1.90;1.38;;;;;;;7.71;100.00;98530.38;4192243;28;20362;-78
2023/02/19 00:05:38;;;;;;;1.83;1.40;;;;;;;7.70;100.00;98528.78;4191078;28;20461;-78
2023/02/19 00:07:39;;;;;;;1.75;1.33;;;;;;;7.70;100.00;98524.09;4196966;28;20141;-78
2023/02/19 00:09:39;;;;;;;1.90;1.50;;;;;;;7.64;100.00;98519.19;4192458;28;20125;-78
2023/02/19 00:11:39;;;;;;;2.05;1.83;;;;;;;7.72;100.00;98509.94;4193581;28;20052;-78
2023/02/19 00:13:42;;;;;;;2.30;1.75;;;;;;;7.74;100.00;98516.69;4193379;28;20071;-78
2023/02/19 00:15:42;;;;;;;2.03;1.80;;;;;;;7.77;100.00;98518.72;4193057;28;20037;-78
2023/02/19 00:17:43;;;;;;;3.88;1.80;;;;;;;7.84;100.00;98523.59;4190820;28;20109;-79
2023/02/19 00:19:43;;;;;;;2.10;1.70;;;;;;;7.85;100.00;98523.22;4191026;28;20040;-78
2023/02/19 00:21:43;;;;;;;2.60;2.03;;;;;;;7.86;100.00;98527.59;4190877;28;20315;-78
2023/02/19 00:23:51;;;;;;;2.75;2.00;;;;;;;7.84;100.00;98518.09;4190158;28;20316;-78
2023/02/19 00:25:51;;;;;;;2.75;2.00;;;;;;;7.83;100.00;98519.25;4196934;28;20124;-78
2023/02/19 00:27:52;;;;;;;2.78;2.15;;;;;;;7.80;100.00;98520.78;4190040;28;20041;-78
2023/02/19 00:29:52;;;;;;;2.10;1.70;;;;;;;7.79;100.00;98510.91;4192814;28;20098;-78
2023/02/19 00:31:53;;;;;;;2.42;2.10;;;;;;;7.81;100.00;98497.56;4193140;28;20175;-78
2023/02/19 00:33:55;;;;;;;2.63;2.00;;;;;;;7.85;100.00;98497.63;4189131;28;20408;-78
2023/02/19 00:35:58;;;;;;;;;;;;;;;7.83;100.00;98498.00;4193551;28;20590;-78
2023/02/19 00:37:58;;;;;;;2.45;2.00;;;;;;;7.77;100.00;98491.16;4191910;28;20443;-78
2023/02/19 00:39:58;;;;;;;2.72;2.05;;;;;;;7.78;100.00;98476.28;4193258;28;20046;-78
2023/02/19 00:41:59;;;;;;;3.28;2.00;;;;;;;7.73;100.00;98484.00;4191372;28;20043;-78
2023/02/19 00:44:03;;;;;;;3.42;1.98;;;;;;;7.70;100.00;98482.78;4190218;28;20117;-78
2023/02/19 00:46:03;;;;;;;2.22;1.80;;;;;;;7.74;100.00;98486.38;4192889;28;20032;-77
2023/02/19 00:48:03;;;;;;;2.20;1.70;;;;;;;7.81;100.00;98477.50;4190744;28;20035;-78
2023/02/19 00:50:04;;;;;;;2.58;1.90;;;;;;;7.77;100.00;98471.88;4193998;28;20458;-77
2023/02/19 00:52:04;;;;;;;2.85;1.75;;;;;;;7.85;100.00;98462.63;4189988;28;20111;-78
2023/02/19 00:54:05;;;;;;;1.58;1.45;;;;;;;7.84;100.00;98457.47;4189796;28;20028;-78
2023/02/19 00:56:06;;;;;;;3.13;1.70;;;;;;;7.84;100.00;98443.72;4189709;28;20027;-78
2023/02/19 00:58:06;;;;;;;1.42;1.30;;;;;;;7.93;100.00;98438.78;4190456;28;20024;-78
2023/02/19 01:00:07;;;;;;;2.05;1.50;;;;;;;7.91;100.00;98445.84;4189269;28;20114;-78
2023/02/19 01:02:07;;;;;;;1.55;1.30;;;;;;;7.89;100.00;98443.44;4193153;28;20036;-78
2023/02/19 01:04:08;;;;;;;1.58;1.20;;;;;;;7.89;100.00;98449.75;4190872;28;20036;-78
2023/02/19 01:06:09;;;;;;;1.83;1.50;;;;;;;7.90;100.00;98439.53;4190278;28;20119;-78
2023/02/19 01:08:10;;;;;;;1.52;1.20;;;;;;;7.88;100.00;98450.91;4190690;28;20046;-78
2023/02/19 01:10:10;;;;;;;1.75;1.40;;;;;;;7.86;100.00;98455.16;4190414;28;20103;-78
2023/02/19 01:12:10;;;;;;;1.52;1.20;;;;;;;7.83;100.00;98464.16;4192533;28;20021;-78
2023/02/19 01:14:11;;;;;;;1.13;1.02;;;;;;;7.84;100.00;98452.78;4194892;28;20028;-78
2023/02/19 01:16:21;;;;;;;1.58;1.30;;;;;;;7.85;100.00;98465.38;4192459;28;20154;-78
2023/02/19 01:18:21;;;;;;;2.58;1.25;;;;;;;7.91;100.00;98457.66;4189711;28;20076;-78
2023/02/19 01:20:21;;;;;;;2.47;1.10;;;;;;;7.95;100.00;98433.75;4194911;28;20076;-79
2023/02/19 01:22:22;;;;;;;2.67;1.23;;;;;;;7.96;100.00;98437.28;4194583;28;20119;-78
2023/02/19 01:24:22;;;;;;;1.20;1.10;;;;;;;7.95;100.00;98419.97;4189286;28;20485;-78
2023/02/19 01:26:25;;;;;;;1.38;1.17;;;;;;;7.96;100.00;98421.56;4190065;28;20051;-78
2023/02/19 01:28:25;;;;;;;1.50;1.30;;;;;;;7.89;100.00;98422.19;4194354;28;20666;-78
2023/02/19 01:30:26;;;;;;;1.55;1.38;;;;;;;7.90;100.00;98420.25;4190354;28;20040;-78
2023/02/19 01:32:26;;;;;;;1.30;1.08;;;;;;;7.89;100.00;98418.66;4189661;28;20032;-78
2023/02/19 01:34:29;;;;;;;1.60;1.38;;;;;;;7.91;100.00;98426.53;4189650;28;20429;-78
2023/02/19 01:36:32;;;;;;;1.60;1.50;;;;;;;7.96;100.00;98412.50;4190612;28;20028;-78
2023/02/19 01:38:32;;;;;;;1.98;1.60;;;;;;;7.94;100.00;98409.28;4193686;28;20395;-78
2023/02/19 01:40:33;;;;;;;1.40;1.30;;;;;;;7.88;100.00;98411.53;4190375;28;20033;-78
2023/02/19 01:42:33;;;;;;;2.78;1.70;;;;;;;7.88;100.00;98409.59;4189007;28;20048;-78
2023/02/19 01:44:34;;;;;;;2.35;1.50;;;;;;;7.97;100.00;98408.56;4190245;28;20129;-78
2023/02/19 01:46:36;;;;;;;2.45;1.98;;;;;;;7.96;100.00;98406.97;4190112;28;20163;-78
2023/02/19 01:48:38;;;;;;;2.83;2.03;;;;;;;7.99;100.00;98403.50;4192238;28;20132;-78
2023/02/19 01:50:47;;;;;;;2.00;1.80;;;;;;;8.02;100.00;98398.03;4190093;28;20033;-78
2023/02/19 01:52:47;;;;;;;2.60;2.05;;;;;;;7.93;100.00;98397.47;4189087;28;20047;-78
2023/02/19 01:54:49;;;;;;;2.90;2.10;;;;;;;7.91;100.00;98399.00;4192352;28;20048;-78
2023/02/19 01:56:50;;;;;;;2.92;2.00;;;;;;;7.86;100.00;98395.38;4191057;28;20100;-78
2023/02/19 01:58:52;;;;;;;4.90;2.20;;;;;;;7.88;100.00;98386.75;4190599;28;20024;-78
2023/02/19 02:00:52;;;;;;;2.70;2.15;;;;;;;7.90;100.00;98400.97;4190244;28;20900;-78
2023/02/19 02:02:56;;;;;;;2.55;2.03;;;;;;;7.88;100.00;98397.78;4196350;28;20076;-78
2023/02/19 02:04:59;;;;;;;2.60;1.98;;;;;;;7.92;100.00;98408.84;4191251;28;20487;-78
2023/02/19 02:07:02;;;;;;;3.03;2.25;;;;;;;7.95;100.00;98403.44;4190235;28;20032;-78
2023/02/19 02:11:21;;;;;;;2.65;1.90;;;;;;;7.96;100.00;98396.75;4191235;28;20056;-78
2023/02/19 02:13:22;;;;;;;2.17;1.85;;;;;;;7.89;100.00;98382.84;4193598;28;20048;-78
2023/02/19 02:15:36;;;;;;;2.25;1.77;;;;;;;7.95;100.00;98378.63;4195171;28;20036;-77
2023/02/19 02:18:01;;;;;;;2.60;1.88;;;;;;;7.92;100.00;98376.59;4193037;28;20052;-78
2023/02/19 02:20:13;;;;;;;2.05;1.45;;;;;;;7.95;100.00;98359.34;4193019;28;20117;-77
2023/02/19 02:22:19;;;;;;;1.92;1.50;;;;;;;7.99;100.00;98362.16;4195159;28;20073;-78
2023/02/19 02:24:31;;;;;;;2.22;1.75;;;;;;;7.95;100.00;98358.56;4193822;28;20020;-78
2023/02/19 02:26:34;;;;;;;2.15;1.70;;;;;;;8.01;100.00;98365.34;4197250;28;20063;-78
2023/02/19 02:28:56;;;;;;;4.25;1.80;;;;;;;8.01;100.00;98354.31;4193370;28;20051;-78
2023/02/19 02:31:01;;;;;;;2.22;1.70;;;;;;;7.98;100.00;98364.13;4192616;28;20047;-78
2023/02/19 02:33:28;;;;;;;2.40;1.52;;;;;;;8.02;100.00;98355.91;4191660;28;20059;-78
2023/02/19 02:35:41;;;;;;;1.77;1.33;;;;;;;8.01;100.00;98343.31;4191776;28;20055;-78
2023/02/19 02:37:44;;;;;;;2.00;1.50;;;;;;;8.01;100.00;98348.81;4196189;28;20045;-77
2023/02/19 02:39:45;;;;;;;;;;;;;;;7.96;100.00;98344.41;4193587;28;20037;-78
2023/02/19 02:42:26;;;;;;;2.08;1.48;;;;;;;7.92;100.00;98348.25;4197979;28;19916;-78
2023/02/19 02:44:13;;;;;;;1.60;1.25;;;;;;;7.98;100.00;98336.56;4191784;28;20087;-78
2023/02/19 02:46:20;;;;;;;2.70;1.75;;;;;;;8.00;100.00;98333.44;4194170;28;20020;-78
2023/02/19 02:48:40;;;;;;;2.15;1.40;;;;;;;8.03;100.00;98325.28;4190630;28;20100;-78
2023/02/19 02:50:59;;;;;;;1.58;1.25;;;;;;;8.03;100.00;98338.25;4192283;28;20473;-78
2023/02/19 02:55:25;;;;;;;1.70;1.38;;;;;;;7.99;100.00;98318.09;4191253;28;20421;-78
2023/02/19 02:57:25;;;;;;;5.28;1.95;;;;;;;7.96;100.00;98318.81;4196218;28;20568;-78
2023/02/19 02:59:31;;;;;;;1.77;1.40;;;;;;;8.00;100.00;98328.75;4192320;28;20076;-78
2023/02/19 03:04:06;;;;;;;1.25;1.10;;;;;;;7.97;100.00;98321.22;4192674;28;20080;-78
2023/02/19 03:06:10;;;;;;;2.00;1.10;;;;;;;7.99;100.00;98326.34;4191767;28;20100;-78
2023/02/19 03:08:32;;;;;;;2.17;1.10;;;;;;;7.98;100.00;98314.53;4196902;28;20035;-78
2023/02/19 03:10:40;;;;;;;2.25;1.20;;;;;;;7.91;100.00;98332.88;4192203;28;20082;-78
2023/02/19 03:20:10;;;;;;;1.25;1.00;;;;;;;7.78;100.00;98315.72;4194291;28;20043;-79
2023/02/19 03:22:18;;;;;;;1.40;1.20;;;;;;;7.77;100.00;98317.66;4191593;28;20020;-78
2023/02/19 03:26:43;;;;;;;1.50;1.10;;;;;;;7.81;100.00;98334.28;4192829;28;20453;-78
2023/02/19 03:31:10;;;;;;;1.83;1.15;;;;;;;7.83;100.00;98313.47;4191124;28;20519;-78
2023/02/19 03:33:25;;;;;;;1.55;1.30;;;;;;;7.79;100.00;98311.81;4193911;28;20430;-78
2023/02/19 03:35:31;;;;;;;1.92;1.30;;;;;;;7.76;100.00;98321.56;4193853;28;20056;-78
2023/02/19 03:37:40;;;;;;;1.80;1.33;;;;;;;7.76;100.00;98313.31;4195308;28;20032;-78
2023/02/19 03:39:43;;;;;;;1.83;1.45;;;;;;;7.76;100.00;98316.06;4191622;28;20047;-78
2023/02/19 03:42:15;;;;;;;2.40;1.52;;;;;;;7.86;100.00;98317.44;4191857;28;20040;-78
2023/02/19 03:44:48;;;;;;;2.08;1.50;;;;;;;7.85;100.00;98310.34;4196711;28;20108;-78
2023/02/19 03:47:19;;;;;;;2.00;1.40;;;;;;;7.92;100.00;98312.44;4189018;28;20138;-78
2023/02/19 03:49:32;;;;;;;2.90;1.85;;;;;;;7.90;100.00;98307.28;4191453;28;20044;-78
2023/02/19 03:51:38;;;;;;;;;;;;;;;7.89;100.00;98317.53;4196974;28;20075;-78
2023/02/19 03:54:01;;;;;;;2.92;1.90;;;;;;;7.92;100.00;98304.16;4191063;28;19967;-78
2023/02/19 03:56:07;;;;;;;;;;;;;;;8.03;100.00;98302.44;4191085;28;20526;-78
2023/02/19 03:58:25;;;;;;;3.40;1.73;;;;;;;8.00;100.00;98301.19;4193171;28;19923;-78
2023/02/19 04:00:37;;;;;;;2.15;1.65;;;;;;;8.02;100.00;98298.06;4190507;28;20221;-78
2023/02/19 04:03:01;;;;;;;2.70;1.95;;;;;;;7.99;100.00;98304.31;4190525;28;20041;-78
2023/02/19 04:05:13;;;;;;;4.07;1.70;;;;;;;7.95;100.00;98303.47;4189178;28;20431;-78
2023/02/19 04:07:13;;;;;;;2.58;1.92;;;;;;;7.98;100.00;98319.25;4191257;28;20093;-78
2023/02/19 04:09:15;;;;;;;3.08;1.65;;;;;;;7.97;100.00;98306.66;4191260;28;20040;-78
2023/02/19 04:11:18;;;;;;;2.28;1.95;;;;;;;7.91;100.00;98305.34;4190221;28;20063;-78
2023/02/19 04:13:26;;;;;;;2.75;2.05;;;;;;;7.88;100.00;98313.19;4190710;28;20059;-78
2023/02/19 04:15:30;;;;;;;2.47;1.75;;;;;;;7.92;100.00;98309.69;4192477;28;20282;-78
2023/02/19 04:17:41;;;;;;;3.00;1.90;;;;;;;7.87;100.00;98303.31;4191439;28;20037;-78
2023/02/19 04:19:41;;;;;;;2.70;2.03;;;;;;;7.93;100.00;98306.56;4194276;28;20351;-78
2023/02/19 04:21:43;;;;;;;2.17;1.83;;;;;;;7.89;100.00;98294.69;4192154;28;20071;-78
2023/02/19 04:23:44;;;;;;;2.28;1.80;;;;;;;7.92;100.00;98312.44;4193817;28;20143;-78
2023/02/19 04:25:48;;;;;;;2.70;1.75;;;;;;;7.88;100.00;98315.13;4190723;28;20052;-78
2023/02/19 04:27:49;;;;;;;2.08;1.70;;;;;;;7.82;100.00;98314.63;4195762;28;20052;-78
2023/02/19 04:29:49;;;;;;;3.13;1.90;;;;;;;7.78;100.00;98326.75;4193765;28;20102;-78
2023/02/19 04:31:50;;;;;;;2.17;1.73;;;;;;;7.86;100.00;98321.00;4192105;28;20550;-78
2023/02/19 04:33:50;;;;;;;1.70;1.55;;;;;;;7.84;100.00;98325.28;4189239;28;20043;-78
2023/02/19 04:35:50;;;;;;;1.73;1.20;;;;;;;7.86;100.00;98325.69;4191759;28;20097;-78
2023/02/19 04:37:50;;;;;;;1.60;1.20;;;;;;;7.86;100.00;98318.25;4190799;28;20232;-78
2023/02/19 04:39:51;;;;;;;1.50;1.40;;;;;;;7.87;100.00;98317.09;4191129;28;20067;-78
2023/02/19 04:41:51;;;;;;;1.73;1.40;;;;;;;7.89;100.00;98311.22;4190809;28;20040;-78
2023/02/19 04:43:51;;;;;;;1.65;1.30;;;;;;;7.81;100.00;98307.53;4190018;28;20420;-78
2023/02/19 04:45:52;;;;;;;1.63;1.30;;;;;;;7.81;100.00;98312.25;4190869;28;20452;-78
2023/02/19 04:47:52;;;;;;;1.25;1.02;;;;;;;7.87;100.00;98313.53;4193902;28;20052;-78
2023/02/19 04:49:52;;;;;;;1.27;1.00;;;;;;;7.91;100.00;98313.59;4190554;28;20040;-78
2023/02/19 04:51:53;;;;;;;1.20;1.00;;;;;;;7.84;100.00;98309.53;4188948;28;20052;-78
2023/02/19 04:53:55;;;;;;;1.35;1.05;;;;;;;7.92;100.00;98320.69;4191385;28;20043;-78
2023/02/19 04:55:55;;;;;;;1.10;1.00;;;;;;;7.98;100.00;98325.56;4190574;28;20143;-78
2023/02/19 04:57:55;;;;;;;1.20;0.95;;;;;;;7.99;100.00;98321.63;4190588;28;20068;-78
2023/02/19 04:59:56;;;;;;;1.10;1.00;;;;;;;8.03;100.00;98330.78;4190553;28;20468;-78
2023/02/19 05:01:56;;;;;;;1.23;0.95;;;;;;;8.05;100.00;98320.19;4190309;28;20045;-78
2023/02/19 05:03:57;;;;;;;1.23;1.00;;;;;;;8.06;100.00;98321.78;4192359;28;20044;-78
2023/02/19 05:06:04;;;;;;;1.42;0.90;;;;;;;8.03;100.00;98330.78;4188879;28;20042;-78
2023/02/19 05:08:05;;;;;;;1.58;1.10;;;;;;;8.02;100.00;98326.41;4189882;28;20057;-78
2023/02/19 05:10:05;;;;;;;1.17;0.85;;;;;;;8.12;100.00;98336.06;4190539;28;20433;-78
2023/02/19 05:12:06;;;;;;;1.80;1.17;;;;;;;8.06;100.00;98335.56;4191045;28;20013;-78
2023/02/19 05:14:06;;;;;;;1.52;1.17;;;;;;;8.09;100.00;98336.78;4189008;28;20353;-78
2023/02/19 05:16:12;;;;;;;1.83;1.40;;;;;;;8.10;100.00;98343.88;4194369;28;20039;-78
2023/02/19 05:18:12;;;;;;;2.17;1.45;;;;;;;8.03;100.00;98344.56;4190646;28;20025;-78
2023/02/19 05:20:13;;;;;;;2.78;1.50;;;;;;;7.98;100.00;98349.56;4190431;28;20035;-78
2023/02/19 05:22:13;;;;;;;3.15;1.60;;;;;;;7.91;100.00;98349.41;4190245;28;20416;-78
2023/02/19 05:24:13;;;;;;;2.55;1.73;;;;;;;7.82;100.00;98344.91;4190563;28;20473;-78
2023/02/19 05:26:16;;;;;;;2.58;1.45;;;;;;;7.74;100.00;98356.16;4193722;28;20039;-78
2023/02/19 05:28:17;;;;;;;3.65;1.98;;;;;;;7.71;100.00;98365.16;4190157;28;20044;-78
2023/02/19 05:30:17;;;;;;;3.17;1.80;;;;;;;7.65;100.00;98358.31;4190438;28;20024;-78
2023/02/19 05:32:18;;;;;;;2.45;1.73;;;;;;;7.62;100.00;98359.06;4191393;28;20028;-78
2023/02/19 05:34:18;;;;;;;2.83;1.58;;;;;;;7.55;100.00;98354.19;4189297;28;20040;-78
2023/02/19 05:36:20;;;;;;;4.00;1.70;;;;;;;7.55;100.00;98366.00;4190185;28;20086;-78
2023/02/19 05:38:22;;;;;;;4.80;2.00;;;;;;;7.52;100.00;98376.91;4192594;28;20052;-78
2023/02/19 05:40:22;;;;;;;4.25;2.22;;;;;;;7.52;100.00;98385.19;4190587;28;20476;-78
2023/02/19 05:42:22;;;;;;;3.03;1.85;;;;;;;7.48;100.00;98376.84;4190132;28;20039;-78
2023/02/19 05:44:23;;;;;;;4.18;2.20;;;;;;;7.42;100.00;98377.50;4189347;28;20075;-78
2023/02/19 05:46:26;;;;;;;4.47;2.30;;;;;;;7.43;100.00;98379.09;4192035;28;20115;-78
2023/02/19 05:48:26;;;;;;;4.93;2.42;;;;;;;7.40;100.00;98379.81;4198074;28;20052;-78
2023/02/19 05:50:29;;;;;;;3.63;2.00;;;;;;;7.35;100.00;98397.38;4193500;28;20044;-78
2023/02/19 05:52:29;;;;;;;4.63;2.58;;;;;;;7.34;100.00;98393.03;4192762;28;20044;-78
2023/02/19 05:54:30;;;;;;;7.13;2.28;;;;;;;7.34;100.00;98390.28;4193070;28;20484;-78
2023/02/19 05:56:40;;;;;;;6.28;2.75;;;;;;;7.30;100.00;98409.50;4193268;28;20029;-78
2023/02/19 05:58:41;;;;;;;3.72;2.20;;;;;;;7.33;100.00;98406.00;4199462;28;20040;-78
2023/02/19 06:00:41;;;;;;;5.00;2.55;;;;;;;7.33;100.00;98405.22;4198271;28;20047;-78
2023/02/19 06:02:42;;;;;;;3.97;2.00;;;;;;;7.26;100.00;98427.84;4194787;28;20052;-78
2023/02/19 06:04:42;;;;;;;2.97;1.90;;;;;;;7.26;100.00;98424.31;4194527;28;20588;-78
2023/02/19 06:06:42;;;;;;;3.33;2.65;;;;;;;7.31;100.00;98426.81;4196679;28;20432;-78
2023/02/19 06:08:43;;;;;;;4.55;1.83;;;;;;;7.26;100.00;98425.09;4192892;28;20037;-78
2023/02/19 06:10:43;;;;;;;3.05;1.63;;;;;;;7.33;100.00;98433.53;4193477;28;20121;-78
2023/02/19 06:12:43;;;;;;;3.45;1.52;;;;;;;7.38;100.00;98442.69;4192678;28;20080;-78
2023/02/19 06:14:44;;;;;;;1.77;1.20;;;;;;;7.26;100.00;98427.84;4195453;28;20070;-78
2023/02/19 06:16:44;;;;;;;1.52;1.00;;;;;;;7.23;100.00;98431.34;4192968;28;20097;-78
2023/02/19 06:18:45;;;;;;;1.77;1.10;;;;;;;7.15;100.00;98435.06;4192420;28;20056;-78
2023/02/19 06:20:45;;;;;;;2.55;1.40;;;;;;;7.19;100.00;98440.66;4193028;28;20044;-78
2023/02/19 06:22:48;;;;;;;2.15;1.17;;;;;;;7.21;100.00;98450.16;4192217;28;20052;-78
2023/02/19 06:24:49;;;;;;;1.73;1.20;;;;;;;7.19;100.00;98449.69;4191734;28;20431;-78
2023/02/19 06:26:49;;;;;;;1.63;1.17;;;;;;;7.20;100.00;98461.50;4200098;28;20060;-78
2023/02/19 06:28:51;;;;;;;2.08;1.40;;;;;;;7.28;100.00;98463.28;4193425;28;20036;-78
2023/02/19 06:30:51;;;;;;;3.35;1.70;;;;;;;7.23;100.00;98456.09;4196956;28;20480;-78
2023/02/19 06:32:52;;;;;;;1.60;1.20;;;;;;;7.20;100.00;98456.81;4191968;28;20044;-78
2023/02/19 06:34:52;;;;;;;1.20;0.90;;;;;;;7.17;100.00;98464.97;4192078;28;20079;-78
2023/02/19 06:36:53;;;;;;;1.30;0.98;;;;;;;7.10;100.00;98457.34;4192395;28;20048;-78
2023/02/19 06:38:53;;;;;;;1.42;1.33;;;;;;;7.11;100.00;98460.88;4193560;28;20122;-78
2023/02/19 06:40:54;;;;;;;0.80;0.70;;;;;;;7.16;100.00;98471.63;4191701;28;20066;-78
2023/02/19 06:42:54;;;;;;;1.83;0.80;;;;;;;7.09;100.00;98460.44;4190357;28;20048;-78
2023/02/19 06:44:55;;;;;;;1.08;0.98;;;;;;;7.07;100.00;98469.06;4192882;28;20123;-78
2023/02/19 06:46:55;;;;;;;1.90;1.20;;;;;;;7.07;100.00;98474.56;4195750;28;20129;-78
2023/02/19 06:48:55;;;;;;;10.65;9.10;;;;;;;7.05;100.00;98485.13;4194095;28;20128;-78
2023/02/19 06:50:56;;;;;;;2.08;1.55;;;;;;;7.17;100.00;98489.75;4195581;28;20054;-78
2023/02/19 06:52:56;;;;;;;2.25;1.70;;;;;;;7.07;100.00;98493.03;4195371;28;20063;-78
2023/02/19 06:54:57;;;;;;;3.30;2.10;;;;;;;7.03;100.00;98501.19;4192827;28;20052;-78
2023/02/19 06:56:58;;;;;;;2.08;1.40;;;;;;;7.05;100.00;98509.91;4191422;28;20037;-78
2023/02/19 06:59:00;;;;;;;3.83;2.10;;;;;;;7.04;100.00;98503.59;4195193;28;20040;-78
2023/02/19 07:01:01;;;;;;;;;;;;;;;6.99;100.00;98514.06;4193408;28;20397;-78
2023/02/19 07:03:01;;;;;;;2.75;1.85;;;;;;;6.95;100.00;98513.16;4191356;28;19927;-78
2023/02/19 07:05:01;;;;;;;14.43;8.15;;;;;;;7.00;100.00;98519.19;4192211;28;20083;-78
2023/02/19 07:07:02;;;;;;;17.23;9.70;;;;;;;6.96;100.00;98514.78;4192000;28;20040;-78
2023/02/19 07:09:04;;;;;;;14.25;8.52;;;;;;;6.96;100.00;98521.06;4194927;28;20412;-78
2023/02/19 07:11:04;;;;;;;11.77;6.78;;;;;;;7.00;100.00;98521.94;4194556;28;20041;-77
2023/02/19 07:13:04;;;;;;;4.57;3.13;;;;;;;7.01;100.00;98529.03;4194248;28;20207;-78
2023/02/19 07:15:05;;;;;;;7.47;4.47;;;;;;;6.97;100.00;98525.41;4135930;28;20061;-78
2023/02/19 07:17:05;;;;;;;4.28;3.38;;;;;;;7.07;100.00;98526.03;4190650;28;20071;-78
2023/02/19 07:19:06;;;;;;;2.75;2.15;;;;;;;7.01;100.00;98526.28;4191984;28;20071;-78
2023/02/19 07:21:11;;;;;;;2.40;1.92;;;;;;;6.98;100.00;98526.22;4192832;28;20271;-77
2023/02/19 07:23:11;;;;;;;3.70;2.20;;;;;;;6.97;100.00;98538.38;4192123;28;20525;-78
2023/02/19 07:25:12;;;;;;;2.28;1.75;;;;;;;6.95;100.00;98527.72;4194956;28;20072;-77
2023/02/19 07:27:12;;;;;;;2.22;1.63;;;;;;;7.01;100.00;98533.75;4194922;28;20165;-78
2023/02/19 07:29:12;;;;;;;2.50;1.70;;;;;;;7.00;100.00;98537.66;4188576;28;20527;-78
2023/02/19 07:31:14;;;;;;;2.55;1.80;;;;;;;7.07;100.00;98550.81;4189676;28;20047;-78
2023/02/19 07:33:15;;;;;;;4.35;1.98;;;;;;;7.06;100.00;98555.50;4184534;28;20044;-78
2023/02/19 07:35:15;;;;;;;4.38;2.05;;;;;;;7.09;100.00;98557.53;4190317;28;20113;-78
2023/02/19 07:37:15;;;;;;;4.45;2.42;;;;;;;7.12;100.00;98561.56;4185656;28;20048;-78
2023/02/19 07:39:16;;;;;;;5.00;3.03;;;;;;;7.20;100.00;98560.56;4188196;28;20040;-78
2023/02/19 07:41:16;;;;;;;26.75;10.50;;;;;;;7.16;100.00;98554.97;4190080;28;20041;-77
2023/02/19 07:43:17;;;;;;;8.20;4.30;;;;;;;7.17;100.00;98564.03;4191638;28;20307;-78
2023/02/19 07:45:17;;;;;;;7.22;4.55;;;;;;;7.21;100.00;98565.75;4190526;28;20045;-78
2023/02/19 07:47:18;;;;;;;7.68;4.75;;;;;;;7.32;100.00;98574.25;4192837;28;20277;-78
2023/02/19 07:49:18;;;;;;;5.25;3.53;;;;;;;7.33;100.00;98573.91;4190502;28;20472;-78
2023/02/19 07:51:19;;;;;;;5.07;3.30;;;;;;;7.37;100.00;98584.22;4191752;28;20388;-78
2023/02/19 07:53:20;;;;;;;4.60;3.20;;;;;;;7.41;100.00;98576.84;4194921;28;20503;-78
2023/02/19 07:55:21;;;;;;;4.30;2.80;;;;;;;7.38;100.00;98574.81;4190906;28;20041;-78
2023/02/19 07:57:21;;;;;;;4.05;2.65;;;;;;;7.40;100.00;98578.00;4193733;28;20335;-78
2023/02/19 07:59:21;;;;;;;4.78;3.05;;;;;;;7.41;100.00;98590.59;4190741;28;20711;-78
2023/02/19 08:02:58;;;;;;;4.65;2.50;;;;;;;7.39;100.00;98584.66;4191146;28;20045;-77
2023/02/19 08:03:44;;;;;;;7.60;3.72;;;;;;;7.35;100.00;98592.81;4188976;28;20049;-78
2023/02/19 08:05:44;;;;;;;5.25;3.33;;;;;;;7.38;100.00;98603.13;4189552;28;20049;-77
2023/02/19 08:07:45;;;;;;;5.80;3.35;;;;;;;7.40;100.00;98600.81;4193430;28;20451;-78
2023/02/19 08:13:17;;;;;;;5.93;3.78;;;;;;;7.43;100.00;98604.81;4190959;28;20036;-78
2023/02/19 08:14:27;;;;;;;4.47;2.70;;;;;;;7.49;100.00;98612.47;4191317;28;20123;-78
2023/02/19 08:16:27;;;;;;;3.58;2.45;;;;;;;7.49;100.00;98625.41;4192140;28;20491;-78
2023/02/19 08:18:30;;;;;;;6.30;3.70;;;;;;;7.48;100.00;98621.88;4192621;28;20285;-78
2023/02/19 08:20:30;;;;;;;;;;;;;;;7.54;100.00;98625.16;4197003;28;20040;-78
2023/02/19 08:22:30;;;;;;;8.48;3.08;;;;;;;7.56;100.00;98618.16;4192428;28;20340;-78
2023/02/19 08:24:32;;;;;;;4.20;3.42;;;;;;;7.51;100.00;98615.66;4192369;28;20049;-78
2023/02/19 08:26:33;;;;;;;4.90;3.23;;;;;;;7.56;100.00;98625.63;4193460;28;20108;-78
2023/02/19 08:28:33;;;;;;;3.28;2.10;;;;;;;7.56;100.00;98633.88;4194290;28;20159;-78
2023/02/19 08:30:34;;;;;;;2.47;1.52;;;;;;;7.59;100.00;98646.91;4191031;28;20067;-77
2023/02/19 08:32:35;;;;;;;4.05;2.00;;;;;;;7.65;100.00;98641.97;4190289;28;20605;-78
2023/02/19 08:34:35;;;;;;;7.32;4.63;;;;;;;7.59;100.00;98638.66;4194060;28;20056;-78
2023/02/19 08:36:37;;;;;;;9.20;6.50;;;;;;;7.66;100.00;98646.31;4192041;28;20044;-78
2023/02/19 08:38:37;;;;;;;5.32;3.80;;;;;;;7.73;100.00;98639.03;4194434;28;20047;-78
2023/02/19 08:40:39;;;;;;;5.45;3.40;;;;;;;7.69;100.00;98649.13;4192948;28;20405;-77
2023/02/19 08:42:39;;;;;;;2.95;2.10;;;;;;;7.69;100.00;98649.13;4194796;28;20044;-78
2023/02/19 08:44:40;;;;;;;3.78;2.47;;;;;;;7.67;100.00;98656.16;4188845;28;20101;-77
2023/02/19 08:46:40;;;;;;;11.43;5.82;;;;;;;7.62;100.00;98653.69;4191487;28;20040;-78
2023/02/19 08:48:40;;;;;;;4.00;2.47;;;;;;;7.60;100.00;98662.28;4186481;28;20041;-78
2023/02/19 08:50:41;;;;;;;4.82;2.90;;;;;;;7.64;100.00;98670.66;4195024;28;20474;-78
2023/02/19 08:52:41;;;;;;;4.93;2.90;;;;;;;7.56;100.00;98670.47;4194194;28;20086;-77
2023/02/19 08:54:41;;;;;;;3.22;2.03;;;;;;;7.52;100.00;98666.00;4192013;28;20067;-77
2023/02/19 08:56:42;;;;;;;3.85;2.60;;;;;;;7.67;100.00;98692.75;4191695;28;20131;-78
2023/02/19 08:58:42;;;;;;;3.65;2.25;;;;;;;7.57;100.00;98690.53;4188039;28;20048;-77
2023/02/19 09:00:43;;;;;;;3.13;1.88;;;;;;;7.60;100.00;98696.13;4193651;28;20042;-78
2023/02/19 09:02:44;;;;;;;3.70;2.00;;;;;;;7.58;100.00;98697.63;4186839;28;20080;-78
2023/02/19 09:04:44;;;;;;;2.28;1.77;;;;;;;7.51;100.00;98694.69;4192840;28;20109;-78
2023/02/19 09:06:44;;;;;;;3.90;2.60;;;;;;;7.41;100.00;98689.72;4188849;28;20124;-78
2023/02/19 09:08:45;;;;;;;1.92;1.42;;;;;;;7.42;100.00;98691.31;4190939;28;20056;-78
2023/02/19 09:10:56;;;;;;;3.50;1.88;;;;;;;7.38;100.00;98688.47;4192098;28;20087;-78
2023/02/19 09:12:56;;;;;;;5.43;2.80;;;;;;;7.35;100.00;98694.66;4193745;28;20070;-78
2023/02/19 09:14:57;;;;;;;4.45;2.25;;;;;;;7.44;100.00;98703.56;4194015;28;20119;-77
2023/02/19 09:16:57;;;;;;;2.92;1.92;;;;;;;7.50;100.00;98696.66;4194099;28;20135;-78
2023/02/19 09:18:57;;;;;;;3.13;2.05;;;;;;;7.46;100.00;98693.00;4195567;28;20028;-76
2023/02/19 09:21:03;;;;;;;4.47;2.15;;;;;;;7.45;100.00;98709.88;4193279;28;20068;-78
2023/02/19 09:23:03;;;;;;;4.20;2.75;;;;;;;7.48;100.00;98703.66;4193393;28;20037;-77
2023/02/19 09:25:04;;;;;;;4.88;2.65;;;;;;;7.52;100.00;98701.78;4200541;28;20368;-78
2023/02/19 09:27:04;;;;;;;3.78;2.40;;;;;;;7.57;100.00;98713.38;4192118;28;20205;-78
2023/02/19 09:29:04;;;;;;;3.92;2.40;;;;;;;7.60;100.00;98717.34;4192136;28;20385;-77
2023/02/19 09:31:07;;;;;;;2.45;1.52;;;;;;;7.77;100.00;98705.22;4199160;28;20048;-77
2023/02/19 09:33:08;;;;;;;2.55;1.83;;;;;;;7.67;100.00;98706.53;4195632;28;20058;-78
2023/02/19 09:35:08;;;;;;;4.70;2.10;;;;;;;7.79;100.00;98723.00;4192767;28;20071;-77
2023/02/19 09:37:08;;;;;;;3.53;2.10;;;;;;;7.88;100.00;98718.13;4197804;28;20055;-78
2023/02/19 09:39:11;;;;;;;4.28;2.45;;;;;;;7.74;100.00;98728.75;4196715;28;20052;-78
2023/02/19 09:41:17;;;;;;;;;;;;;;;7.79;100.00;98723.00;4195546;28;20067;-77
2023/02/19 09:43:23;;;;;;;5.93;4.00;;;;;;;7.76;100.00;98731.94;4195041;28;20322;-77
2023/02/19 09:45:25;;;;;;;3.55;2.45;;;;;;;7.70;100.00;98725.13;4196325;28;20041;-77
2023/02/19 09:47:28;;;;;;;4.30;2.75;;;;;;;7.75;100.00;98719.34;4194048;28;20452;-78
2023/02/19 09:49:36;;;;;;;4.07;2.10;;;;;;;7.77;100.00;98741.00;4198016;28;20051;-78
2023/02/19 09:51:40;;;;;;;4.40;2.53;;;;;;;7.79;100.00;98766.28;4193773;28;20102;-78
2023/02/19 09:53:44;;;;;;;1.95;1.50;;;;;;;7.62;100.00;98772.91;4191818;28;20106;-78
2023/02/19 09:55:45;;;;;;;1.23;0.98;;;;;;;7.31;100.00;98781.84;4197054;28;20418;-77
2023/02/19 09:57:46;;;;;;;1.73;1.10;;;;;;;6.83;100.00;98780.78;4197532;28;20323;-77
2023/02/19 09:59:52;;;;;;;1.20;1.05;;;;;;;6.72;100.00;98787.91;4193386;28;20051;-77
2023/02/19 10:02:12;;;;;;;2.47;1.90;;;;;;;6.65;100.00;98798.69;4190386;28;20088;-77